Time;durP1;ratioP1;P1;durP2;ratioP2;P2;SDS_P1;SDS_P2;PMS_P1;PMS_P2;Temp;Humidity;BMP_temperature;BMP_pressure;BME280_temperature;BME280_humidity;BME280_pressure;Samples;Min_cycle;Max_cycle;Signal;HPM_P1;HPM_P2
2022/12/21 00:01:35;;;;;;;22.45;18.27;;;10.80;99.90;;;;;;5041124;28;20030;-39
2022/12/21 00:04:03;;;;;;;23.92;18.13;;;10.80;99.90;;;;;;5041608;28;20043;-40
2022/12/21 00:06:32;;;;;;;23.67;18.52;;;10.70;99.90;;;;;;5042281;28;20033;-38
2022/12/21 00:08:59;;;;;;;26.35;18.98;;;10.70;99.90;;;;;;5040921;28;20692;-38
2022/12/21 00:11:26;;;;;;;26.42;18.77;;;10.70;99.90;;;;;;5041863;28;20114;-41
2022/12/21 00:13:54;;;;;;;24.77;18.52;;;10.70;99.90;;;;;;5042002;28;20033;-40
2022/12/21 00:16:22;;;;;;;23.15;17.83;;;10.70;99.90;;;;;;5039902;28;20036;-38
2022/12/21 00:18:47;;;;;;;26.67;18.33;;;10.70;99.90;;;;;;5042136;28;20036;-40
2022/12/21 00:21:15;;;;;;;24.50;18.40;;;10.60;99.90;;;;;;5041447;28;20025;-39
2022/12/21 00:23:43;;;;;;;29.10;19.35;;;10.60;99.90;;;;;;5041269;28;20033;-41
2022/12/21 00:26:10;;;;;;;26.15;18.33;;;10.70;99.90;;;;;;5040632;28;20903;-39
2022/12/21 00:28:36;;;;;;;27.02;17.95;;;10.60;99.90;;;;;;5041877;28;20025;-39
2022/12/21 00:31:05;;;;;;;25.63;18.30;;;10.70;99.90;;;;;;5040169;28;20104;-40
2022/12/21 00:33:30;;;;;;;26.30;17.80;;;10.60;99.90;;;;;;5041670;28;20052;-39
2022/12/21 00:35:56;;;;;;;27.98;18.50;;;10.60;99.90;;;;;;5041193;28;20484;-40
2022/12/21 00:38:21;;;;;;;25.08;17.98;;;10.60;99.90;;;;;;5040571;28;20063;-41
2022/12/21 00:40:59;;;;;;;28.85;19.75;;;10.60;99.90;;;;;;5041363;28;20013;-40
2022/12/21 00:43:25;;;;;;;25.25;17.75;;;10.60;99.90;;;;;;5040575;28;20033;-40
2022/12/21 00:45:51;;;;;;;23.20;17.92;;;10.60;99.90;;;;;;5041213;28;20805;-41
2022/12/21 00:48:16;;;;;;;25.10;17.45;;;10.70;99.90;;;;;;5040194;28;20110;-39
2022/12/21 00:50:42;;;;;;;25.90;18.30;;;10.60;99.90;;;;;;5040708;28;20083;-41
2022/12/21 00:53:08;;;;;;;24.65;17.52;;;10.60;99.90;;;;;;5040210;28;20025;-39
2022/12/21 00:55:34;;;;;;;23.58;18.25;;;10.60;99.90;;;;;;5041078;28;20102;-39
2022/12/21 00:58:00;;;;;;;26.05;18.75;;;10.60;99.90;;;;;;5040146;28;20021;-41
2022/12/21 01:00:26;;;;;;;26.95;18.75;;;10.60;99.90;;;;;;5040746;28;20043;-41
2022/12/21 01:02:52;;;;;;;25.83;19.20;;;10.60;99.90;;;;;;5041441;28;20417;-41
2022/12/21 01:05:18;;;;;;;27.00;19.58;;;10.60;99.90;;;;;;5039829;28;20152;-39
2022/12/21 01:07:43;;;;;;;29.80;20.10;;;10.60;99.90;;;;;;5040638;28;20021;-39
2022/12/21 01:10:10;;;;;;;30.60;19.42;;;10.50;99.90;;;;;;5040782;28;20500;-40
2022/12/21 01:12:35;;;;;;;28.20;19.92;;;10.50;99.90;;;;;;5040224;28;20142;-40
2022/12/21 01:15:01;;;;;;;28.83;19.92;;;10.50;99.90;;;;;;5040695;28;20738;-40
2022/12/21 01:17:27;;;;;;;29.35;20.80;;;10.50;99.90;;;;;;5041659;28;20049;-40
2022/12/21 01:19:52;;;;;;;32.45;20.88;;;10.40;99.90;;;;;;5040166;28;20052;-40
2022/12/21 01:22:18;;;;;;;32.17;20.80;;;10.40;99.90;;;;;;5040741;28;20828;-40
2022/12/21 01:24:46;;;;;;;31.20;20.75;;;10.40;99.90;;;;;;5040962;28;20124;-37
2022/12/21 01:27:11;;;;;;;31.02;21.40;;;10.40;99.90;;;;;;5039465;28;20028;-39
2022/12/21 01:29:37;;;;;;;34.00;22.30;;;10.40;99.90;;;;;;5040854;28;20377;-38
2022/12/21 01:32:03;;;;;;;31.58;21.80;;;10.40;99.90;;;;;;5041165;28;20670;-38
2022/12/21 01:34:28;;;;;;;32.67;22.13;;;10.40;99.90;;;;;;5039983;28;20388;-40
2022/12/21 01:36:54;;;;;;;32.88;21.75;;;10.40;99.90;;;;;;5040754;28;20025;-39
2022/12/21 01:39:19;;;;;;;32.67;22.02;;;10.50;99.90;;;;;;5040129;28;20804;-40
2022/12/21 01:41:45;;;;;;;31.17;21.55;;;10.40;99.90;;;;;;5040079;28;20017;-39
2022/12/21 01:44:55;;;;;;;29.73;20.98;;;10.50;99.90;;;;;;5040138;28;20567;-38
2022/12/21 01:47:27;;;;;;;32.15;20.55;;;10.40;99.90;;;;;;5020257;28;20030;-39
2022/12/21 01:49:59;;;;;;;27.45;19.63;;;10.40;99.90;;;;;;5039614;28;20025;-41
2022/12/21 01:52:25;;;;;;;27.58;20.05;;;10.40;99.90;;;;;;5040604;28;20032;-39
2022/12/21 01:54:56;;;;;;;28.63;20.25;;;10.40;99.90;;;;;;5039780;28;20514;-40
2022/12/21 01:57:24;;;;;;;32.30;20.02;;;10.40;99.90;;;;;;5040586;28;20033;-41
2022/12/21 01:59:54;;;;;;;29.35;20.38;;;10.40;99.90;;;;;;5040427;28;20033;-41
2022/12/21 02:02:27;;;;;;;28.10;19.92;;;10.40;99.90;;;;;;5039141;28;20062;-40
2022/12/21 02:04:53;;;;;;;28.85;19.88;;;10.40;99.90;;;;;;5040684;28;20033;-41
2022/12/21 02:07:20;;;;;;;26.73;19.50;;;10.40;99.90;;;;;;5039518;28;20068;-39
2022/12/21 02:09:46;;;;;;;32.08;20.08;;;10.40;99.90;;;;;;5039112;28;20074;-40
2022/12/21 02:12:15;;;;;;;30.08;19.45;;;10.40;99.90;;;;;;5039806;28;20017;-40
2022/12/21 02:14:44;;;;;;;32.13;19.75;;;10.40;99.90;;;;;;5040316;28;20098;-39
2022/12/21 02:17:29;;;;;;;29.13;18.90;;;10.40;99.90;;;;;;5040905;28;20025;-41
2022/12/21 02:20:08;;;;;;;29.48;19.45;;;10.40;99.90;;;;;;5043376;28;20029;-40
2022/12/21 02:23:11;;;;;;;30.23;18.42;;;10.40;99.90;;;;;;5043320;28;20041;-40
2022/12/21 02:26:01;;;;;;;26.83;18.95;;;10.40;99.90;;;;;;5043602;28;20400;-39
2022/12/21 02:28:48;;;;;;;28.25;18.67;;;10.40;99.90;;;;;;5024297;28;20041;-40
2022/12/21 02:31:33;;;;;;;33.08;18.85;;;10.40;99.90;;;;;;5041282;28;20056;-40
2022/12/21 02:34:05;;;;;;;31.08;19.15;;;10.30;99.90;;;;;;5043579;28;20053;-40
2022/12/21 02:36:50;;;;;;;44.33;19.85;;;10.40;99.90;;;;;;5039676;28;20026;-39
2022/12/21 02:39:39;;;;;;;41.13;18.80;;;10.40;99.90;;;;;;5043374;28;20037;-41
2022/12/21 02:44:12;;;;;;;55.55;18.83;;;10.40;99.90;;;;;;5043122;28;20053;-41
2022/12/21 02:45:25;;;;;;;28.92;18.00;;;10.40;99.90;;;;;;5043259;28;20102;-38
2022/12/21 02:48:15;;;;;;;46.38;17.77;;;10.30;99.90;;;;;;5035160;28;20039;-40
2022/12/21 02:50:48;;;;;;;53.92;18.17;;;10.30;99.90;;;;;;5043011;28;20029;-39
2022/12/21 02:53:15;;;;;;;;;;;10.30;99.90;;;;;;5043462;28;20029;-36
2022/12/21 02:55:43;;;;;;;37.35;16.50;;;10.30;99.90;;;;;;5043800;28;19916;-40
2022/12/21 02:58:17;;;;;;;32.95;16.98;;;10.20;99.90;;;;;;5042687;28;20029;-41
2022/12/21 03:00:49;;;;;;;24.23;16.83;;;10.30;99.90;;;;;;5043312;28;20528;-40
2022/12/21 03:07:00;;;;;;;46.55;18.10;;;10.20;99.90;;;;;;5042041;28;20404;-37
2022/12/21 03:09:56;;;;;;;33.50;17.77;;;10.20;99.90;;;;;;5019862;28;20084;-37
2022/12/21 03:12:46;;;;;;;33.65;17.63;;;10.20;99.90;;;;;;5018943;28;20033;-40
2022/12/21 03:15:32;;;;;;;52.90;17.25;;;10.20;99.90;;;;;;5018656;28;20551;-40
2022/12/21 03:18:15;;;;;;;35.20;17.38;;;10.20;99.90;;;;;;5042504;28;20023;-40
2022/12/21 03:20:49;;;;;;;44.15;17.02;;;10.20;99.90;;;;;;5043074;28;20086;-40
2022/12/21 03:23:24;;;;;;;58.22;17.17;;;10.20;99.90;;;;;;5042230;28;20033;-39
2022/12/21 03:26:28;;;;;;;52.50;18.45;;;10.20;99.90;;;;;;5043034;28;20144;-41
2022/12/21 03:28:54;;;;;;;34.15;17.63;;;10.20;99.90;;;;;;5029798;28;20033;-42
2022/12/21 03:31:24;;;;;;;26.92;17.50;;;10.20;99.90;;;;;;5042579;28;20044;-42
2022/12/21 03:34:07;;;;;;;51.72;18.23;;;10.10;99.90;;;;;;5042295;28;20041;-41
2022/12/21 03:37:02;;;;;;;29.67;18.35;;;10.10;99.90;;;;;;5042879;28;20048;-40
2022/12/21 03:39:29;;;;;;;26.35;18.98;;;10.10;99.90;;;;;;5032250;28;20040;-41
2022/12/21 03:42:05;;;;;;;30.42;17.50;;;10.10;99.90;;;;;;5042990;28;20036;-38
2022/12/21 03:44:39;;;;;;;49.05;17.80;;;10.10;99.90;;;;;;5032464;28;20037;-40
2022/12/21 03:47:11;;;;;;;32.45;18.58;;;10.10;99.90;;;;;;5041308;28;20021;-38
2022/12/21 03:49:49;;;;;;;30.33;18.80;;;10.10;99.90;;;;;;5042743;28;20137;-41
2022/12/21 03:52:19;;;;;;;29.02;19.02;;;10.10;99.90;;;;;;5042361;28;20072;-41
2022/12/21 03:54:48;;;;;;;45.38;19.02;;;10.10;99.90;;;;;;5041481;28;20757;-40
2022/12/21 03:57:15;;;;;;;32.95;17.65;;;10.10;99.90;;;;;;5042229;28;20052;-41
2022/12/21 03:59:44;;;;;;;56.72;18.70;;;10.10;99.90;;;;;;5042512;28;20503;-40
2022/12/21 04:02:30;;;;;;;70.35;18.60;;;10.20;99.90;;;;;;5041563;28;20122;-39
2022/12/21 04:05:11;;;;;;;81.00;19.35;;;10.10;99.90;;;;;;5042311;28;20774;-39
2022/12/21 04:07:39;;;;;;;25.45;18.05;;;10.10;99.90;;;;;;5042881;28;20582;-40
2022/12/21 04:10:11;;;;;;;57.38;18.95;;;10.20;99.90;;;;;;5041457;28;20021;-39
2022/12/21 04:12:37;;;;;;;45.63;17.80;;;10.20;99.90;;;;;;5042973;28;20063;-39
2022/12/21 04:15:18;;;;;;;41.80;18.58;;;10.20;99.90;;;;;;5041942;28;20045;-41
2022/12/21 04:17:47;;;;;;;49.88;18.85;;;10.20;99.90;;;;;;5042697;28;20036;-39
2022/12/21 04:20:18;;;;;;;26.95;18.40;;;10.20;99.90;;;;;;5041701;28;20506;-40
2022/12/21 04:28:21;;;;;;;27.75;17.25;;;10.20;99.90;;;;;;5040959;28;20036;-40
2022/12/21 04:30:47;;;;;;;34.17;17.88;;;10.20;99.90;;;;;;5040967;28;20037;-40
2022/12/21 04:33:18;;;;;;;33.58;18.70;;;10.20;99.90;;;;;;5040901;28;20049;-40
2022/12/21 04:38:31;;;;;;;24.48;18.20;;;10.20;99.90;;;;;;5041536;28;20287;-37
2022/12/21 04:40:57;;;;;;;58.58;17.98;;;10.20;99.90;;;;;;5036946;28;20025;-40
2022/12/21 04:43:24;;;;;;;41.38;17.92;;;10.20;99.90;;;;;;5040843;28;20040;-40
2022/12/21 04:46:07;;;;;;;72.57;17.65;;;10.20;99.90;;;;;;5041069;28;20057;-41
2022/12/21 04:48:34;;;;;;;58.75;18.40;;;10.20;99.90;;;;;;5041186;28;20586;-41
2022/12/21 04:51:04;;;;;;;47.75;18.38;;;10.20;99.90;;;;;;5039882;28;20087;-39
2022/12/21 04:53:29;;;;;;;46.33;18.33;;;10.20;99.90;;;;;;5041473;28;20037;-41
2022/12/21 04:55:55;;;;;;;43.88;18.30;;;10.10;99.90;;;;;;5041482;28;20035;-40
2022/12/21 04:58:20;;;;;;;57.97;17.98;;;10.10;99.90;;;;;;5040321;28;20033;-37
2022/12/21 05:00:46;;;;;;;26.52;17.15;;;10.10;99.90;;;;;;5040716;28;20044;-40
2022/12/21 05:03:11;;;;;;;39.38;17.45;;;10.10;99.90;;;;;;5041328;28;20044;-40
2022/12/21 05:05:37;;;;;;;42.90;16.95;;;10.10;99.90;;;;;;5040412;28;20037;-40
2022/12/21 05:08:02;;;;;;;31.48;16.98;;;10.10;99.90;;;;;;5041316;28;20134;-40
2022/12/21 05:10:28;;;;;;;24.02;17.00;;;10.00;99.90;;;;;;5041518;28;20159;-40
2022/12/21 05:12:54;;;;;;;26.33;16.90;;;10.00;99.90;;;;;;5040962;28;20028;-39
2022/12/21 05:15:19;;;;;;;24.15;16.77;;;10.10;99.90;;;;;;5041149;28;20021;-40
2022/12/21 05:17:45;;;;;;;25.35;17.73;;;10.10;99.90;;;;;;5040277;28;20025;-39
2022/12/21 05:20:10;;;;;;;28.40;18.13;;;10.00;99.90;;;;;;5040853;28;20028;-41
2022/12/21 05:22:36;;;;;;;25.95;18.35;;;10.00;99.90;;;;;;5041397;28;20025;-38
2022/12/21 05:25:01;;;;;;;26.40;18.23;;;10.00;99.90;;;;;;5039415;28;20044;-40
2022/12/21 05:27:27;;;;;;;28.30;18.80;;;10.00;99.90;;;;;;5040519;28;20060;-39
2022/12/21 05:29:53;;;;;;;25.10;17.98;;;10.00;99.90;;;;;;5040576;28;20040;-39
2022/12/21 05:32:18;;;;;;;26.45;18.40;;;10.00;99.90;;;;;;5038983;28;20056;-40
2022/12/21 05:34:44;;;;;;;32.67;19.10;;;10.10;99.90;;;;;;5040624;28;20025;-40
2022/12/21 05:37:10;;;;;;;24.77;18.35;;;10.00;99.90;;;;;;5040126;28;20025;-40
2022/12/21 05:39:35;;;;;;;26.90;19.35;;;10.00;99.90;;;;;;5040116;28;20699;-41
2022/12/21 05:42:02;;;;;;;31.25;19.17;;;10.00;99.90;;;;;;5040308;28;20025;-40
2022/12/21 05:44:28;;;;;;;31.20;18.90;;;10.00;99.90;;;;;;5040679;28;20129;-38
2022/12/21 05:46:54;;;;;;;28.75;19.52;;;10.00;99.90;;;;;;5040719;28;20104;-41
2022/12/21 05:49:20;;;;;;;34.45;20.02;;;10.00;99.90;;;;;;5041013;28;20479;-40
2022/12/21 05:51:49;;;;;;;30.50;19.45;;;10.00;99.90;;;;;;5043496;28;20020;-39
2022/12/21 05:54:18;;;;;;;31.63;19.65;;;10.00;99.90;;;;;;5043346;28;20029;-40
2022/12/21 05:56:43;;;;;;;33.15;20.80;;;10.00;99.90;;;;;;5044743;28;20090;-38
2022/12/21 05:59:09;;;;;;;36.80;21.10;;;10.00;99.90;;;;;;5043855;28;20033;-38
2022/12/21 06:01:35;;;;;;;33.15;20.95;;;10.00;99.90;;;;;;5044049;28;20137;-39
2022/12/21 06:04:00;;;;;;;34.55;20.63;;;10.00;99.90;;;;;;5043553;28;20112;-41
2022/12/21 06:06:26;;;;;;;34.03;21.48;;;9.90;99.90;;;;;;5044228;28;20032;-41
2022/12/21 06:08:52;;;;;;;33.78;21.42;;;10.00;99.90;;;;;;5043553;28;20021;-40
2022/12/21 06:11:20;;;;;;;37.53;22.17;;;9.90;99.90;;;;;;5043507;28;20738;-42
2022/12/21 06:13:45;;;;;;;36.08;21.48;;;9.90;99.90;;;;;;5043938;28;20461;-39
2022/12/21 06:16:15;;;;;;;33.10;20.80;;;10.00;99.90;;;;;;5044113;28;20047;-40
2022/12/21 06:18:40;;;;;;;34.20;22.08;;;10.00;99.90;;;;;;5044541;28;20060;-39
2022/12/21 06:21:07;;;;;;;38.17;23.27;;;9.90;99.90;;;;;;5043840;28;20119;-41
2022/12/21 06:23:33;;;;;;;37.92;23.80;;;9.90;99.90;;;;;;5043820;28;20423;-40
2022/12/21 06:26:00;;;;;;;37.83;23.17;;;9.90;99.90;;;;;;5043498;28;20492;-41
2022/12/21 06:28:28;;;;;;;35.78;22.52;;;9.90;99.90;;;;;;5043796;28;20032;-40
2022/12/21 06:30:54;;;;;;;35.60;23.25;;;9.90;99.90;;;;;;5043532;28;20474;-38
2022/12/21 06:33:22;;;;;;;35.10;22.08;;;9.90;99.90;;;;;;5042864;28;20672;-41
2022/12/21 06:35:54;;;;;;;35.15;22.48;;;9.90;99.90;;;;;;5043774;28;20242;-39
2022/12/21 06:38:20;;;;;;;36.00;22.48;;;9.90;99.90;;;;;;5043152;28;20016;-43
2022/12/21 06:40:56;;;;;;;35.92;22.50;;;9.90;99.90;;;;;;5043948;28;20090;-40
2022/12/21 06:43:22;;;;;;;34.33;22.17;;;9.90;99.90;;;;;;5042665;28;20041;-39
2022/12/21 06:45:56;;;;;;;34.70;21.92;;;9.90;99.90;;;;;;5043455;28;20585;-39
2022/12/21 06:48:23;;;;;;;34.13;21.35;;;9.90;99.90;;;;;;5043454;28;20029;-39
2022/12/21 06:50:52;;;;;;;31.25;21.67;;;9.90;99.90;;;;;;5042967;28;20496;-40
2022/12/21 06:53:18;;;;;;;32.95;21.70;;;9.90;99.90;;;;;;5043408;28;20027;-39
2022/12/21 06:55:43;;;;;;;31.60;22.13;;;9.90;99.90;;;;;;5043987;28;20033;-40
2022/12/21 06:58:09;;;;;;;33.10;21.52;;;9.90;99.90;;;;;;5042309;28;20477;-41
2022/12/21 07:00:34;;;;;;;32.05;21.05;;;9.90;99.90;;;;;;5043494;28;20033;-39
2022/12/21 07:03:00;;;;;;;32.05;21.00;;;9.90;99.90;;;;;;5042183;28;20052;-42
2022/12/21 07:05:25;;;;;;;33.60;21.75;;;9.90;99.90;;;;;;5043744;28;20040;-40
2022/12/21 07:07:51;;;;;;;32.00;21.67;;;9.90;99.90;;;;;;5063645;28;20031;-41
2022/12/21 07:10:16;;;;;;;33.45;22.42;;;9.80;99.90;;;;;;5044368;28;20032;-40
2022/12/21 07:12:42;;;;;;;34.55;21.20;;;9.80;99.90;;;;;;5040455;28;20033;-40
2022/12/21 07:15:08;;;;;;;34.63;22.95;;;9.80;99.90;;;;;;5042702;28;20037;-40
2022/12/21 07:17:33;;;;;;;34.42;22.13;;;9.80;99.90;;;;;;5041744;28;20033;-38
2022/12/21 07:19:59;;;;;;;33.20;21.45;;;9.70;99.90;;;;;;5040937;28;20025;-40
2022/12/21 07:22:25;;;;;;;35.30;23.83;;;9.70;99.90;;;;;;5041797;28;20669;-40
2022/12/21 07:24:50;;;;;;;33.83;21.80;;;9.70;99.90;;;;;;5041268;28;20048;-39
2022/12/21 07:27:16;;;;;;;31.38;21.38;;;9.70;99.90;;;;;;5041870;28;20036;-39
2022/12/21 07:29:42;;;;;;;33.03;21.15;;;9.70;99.90;;;;;;5042402;28;20035;-40
2022/12/21 07:32:07;;;;;;;34.88;22.15;;;9.70;99.90;;;;;;5040138;28;20087;-39
2022/12/21 07:34:34;;;;;;;34.67;21.48;;;9.70;99.90;;;;;;5041000;28;20094;-40
2022/12/21 07:36:59;;;;;;;32.78;20.58;;;9.70;99.90;;;;;;5041621;28;20032;-40
2022/12/21 07:39:25;;;;;;;33.78;21.45;;;9.60;99.90;;;;;;5041409;28;20047;-39
2022/12/21 07:41:50;;;;;;;29.75;20.52;;;9.60;99.90;;;;;;5042706;28;20052;-40
2022/12/21 07:44:16;;;;;;;31.90;21.60;;;9.60;99.90;;;;;;5042264;28;20040;-37
2022/12/21 07:46:41;;;;;;;32.17;21.65;;;9.60;99.90;;;;;;5042131;28;20033;-38
2022/12/21 07:49:07;;;;;;;33.53;20.52;;;9.60;99.90;;;;;;5042322;28;20469;-39
2022/12/21 07:51:32;;;;;;;36.08;22.23;;;9.60;99.90;;;;;;5042047;28;20778;-40
2022/12/21 07:53:58;;;;;;;31.05;21.17;;;9.60;99.90;;;;;;5041224;28;20079;-39
2022/12/21 07:56:23;;;;;;;31.70;20.92;;;9.60;99.90;;;;;;5041795;28;20052;-41
2022/12/21 07:58:49;;;;;;;31.13;20.95;;;9.60;99.90;;;;;;5042569;28;20041;-37
2022/12/21 08:01:16;;;;;;;28.42;19.75;;;9.60;99.90;;;;;;5041183;28;20021;-40
2022/12/21 08:03:44;;;;;;;31.75;22.55;;;9.60;99.90;;;;;;5042744;28;20472;-39
2022/12/21 08:06:10;;;;;;;33.38;22.67;;;9.60;99.90;;;;;;5042256;28;20036;-40
2022/12/21 08:08:37;;;;;;;29.27;21.17;;;9.60;99.90;;;;;;5041409;28;20044;-38
2022/12/21 08:11:02;;;;;;;30.73;21.13;;;9.60;99.90;;;;;;5041882;28;20012;-40
2022/12/21 08:13:29;;;;;;;28.25;19.63;;;9.60;99.90;;;;;;5040910;28;20396;-41
2022/12/21 08:16:14;;;;;;;26.80;18.98;;;9.50;99.90;;;;;;5041367;28;20021;-41
2022/12/21 08:18:40;;;;;;;26.55;18.60;;;9.60;99.90;;;;;;5031014;28;20029;-40
2022/12/21 08:21:06;;;;;;;26.45;19.02;;;9.50;99.90;;;;;;5040136;28;20021;-40
2022/12/21 08:23:32;;;;;;;28.65;19.15;;;9.50;99.90;;;;;;5041375;28;20170;-41
2022/12/21 08:26:03;;;;;;;27.58;19.60;;;9.50;99.90;;;;;;5041870;28;20032;-40
2022/12/21 08:28:29;;;;;;;28.48;20.27;;;9.50;99.90;;;;;;5040648;28;20611;-40
2022/12/21 08:31:07;;;;;;;29.52;18.90;;;9.40;99.90;;;;;;5041598;28;20039;-41
2022/12/21 08:33:33;;;;;;;27.02;19.10;;;9.40;99.90;;;;;;5040680;28;20111;-38
2022/12/21 08:35:58;;;;;;;27.05;18.67;;;9.40;99.90;;;;;;5041253;28;20029;-38
2022/12/21 08:38:25;;;;;;;27.67;18.98;;;9.40;99.90;;;;;;5041056;28;20032;-40
2022/12/21 08:40:51;;;;;;;26.15;17.42;;;9.40;99.90;;;;;;5041997;28;20099;-39
2022/12/21 08:43:17;;;;;;;26.95;18.83;;;9.40;99.90;;;;;;5039473;28;20852;-40
2022/12/21 08:45:44;;;;;;;26.85;18.17;;;9.50;99.90;;;;;;5041047;28;20029;-40
2022/12/21 08:48:09;;;;;;;25.13;18.10;;;9.50;99.90;;;;;;5040736;28;20029;-39
2022/12/21 08:50:35;;;;;;;24.00;17.27;;;9.50;99.90;;;;;;5040260;28;20036;-40
2022/12/21 08:53:00;;;;;;;23.10;16.80;;;9.50;99.90;;;;;;5040027;28;20070;-41
2022/12/21 08:55:26;;;;;;;22.48;15.98;;;9.50;99.90;;;;;;5041509;28;20036;-40
2022/12/21 08:57:52;;;;;;;25.15;16.45;;;9.50;99.90;;;;;;5040079;28;20377;-40
2022/12/21 09:00:18;;;;;;;23.33;15.00;;;9.50;99.90;;;;;;5040689;28;20793;-40
2022/12/21 09:02:43;;;;;;;19.83;14.63;;;9.60;99.90;;;;;;5040394;28;20028;-39
2022/12/21 09:05:10;;;;;;;22.30;14.60;;;9.60;99.90;;;;;;5040698;28;20033;-41
2022/12/21 09:07:35;;;;;;;20.90;12.93;;;9.60;99.90;;;;;;5041032;28;20033;-41
2022/12/21 09:10:01;;;;;;;23.85;14.77;;;9.60;99.90;;;;;;5039814;28;20068;-40
2022/12/21 09:12:27;;;;;;;19.10;12.77;;;9.70;99.90;;;;;;5041345;28;20124;-40
2022/12/21 09:14:53;;;;;;;15.73;12.10;;;9.70;99.90;;;;;;5041278;28;20056;-38
2022/12/21 09:17:18;;;;;;;16.80;11.73;;;9.80;99.90;;;;;;5040192;28;20535;-40
2022/12/21 09:19:44;;;;;;;14.07;11.50;;;9.80;99.90;;;;;;5040735;28;20029;-40
2022/12/21 09:22:09;;;;;;;13.63;10.18;;;9.80;99.90;;;;;;5039702;28;20040;-41
2022/12/21 09:24:35;;;;;;;18.88;12.02;;;9.80;99.90;;;;;;5039893;28;20037;-39
2022/12/21 09:27:00;;;;;;;15.68;11.27;;;9.70;99.90;;;;;;5040420;28;20522;-40
2022/12/21 09:29:29;;;;;;;16.27;11.43;;;9.70;99.90;;;;;;5040430;28;20728;-38
2022/12/21 09:31:55;;;;;;;15.07;10.50;;;9.70;99.90;;;;;;5040190;28;20025;-40
2022/12/21 09:34:20;;;;;;;12.02;9.63;;;9.70;99.90;;;;;;5039967;28;20085;-40
2022/12/21 09:36:46;;;;;;;13.45;10.00;;;9.70;99.90;;;;;;5041073;28;20373;-40
2022/12/21 09:39:12;;;;;;;17.10;10.50;;;9.70;99.90;;;;;;5037872;28;20025;-39
2022/12/21 09:41:48;;;;;;;14.57;10.20;;;9.70;99.90;;;;;;5040153;28;20017;-39
2022/12/21 09:44:21;;;;;;;13.85;9.73;;;9.70;99.90;;;;;;5039912;28;20257;-40
2022/12/21 09:46:51;;;;;;;16.60;10.50;;;9.70;99.90;;;;;;5040051;28;20455;-39
2022/12/21 09:49:36;;;;;;;12.32;10.13;;;9.80;99.90;;;;;;5040399;28;20378;-36
2022/12/21 09:52:04;;;;;;;15.25;8.73;;;9.80;99.90;;;;;;5031435;28;20060;-39
2022/12/21 09:54:41;;;;;;;12.45;9.32;;;9.80;99.90;;;;;;5040158;28;20191;-39
2022/12/21 09:57:12;;;;;;;13.90;9.07;;;9.80;99.90;;;;;;5039205;28;20040;-38
2022/12/21 09:59:37;;;;;;;14.68;9.43;;;9.80;99.90;;;;;;5039516;28;20058;-37
2022/12/21 10:02:37;;;;;;;13.98;10.25;;;9.80;99.90;;;;;;5039987;28;20844;-38
2022/12/21 10:05:18;;;;;;;13.40;10.10;;;9.80;99.90;;;;;;5039246;28;20142;-40
2022/12/21 10:08:14;;;;;;;13.13;9.05;;;9.70;99.90;;;;;;5040200;28;20098;-39
2022/12/21 10:10:51;;;;;;;12.88;8.82;;;9.70;99.90;;;;;;5040633;28;20539;-40
2022/12/21 10:13:36;;;;;;;14.82;9.95;;;9.70;99.90;;;;;;5038987;28;20036;-40
2022/12/21 10:16:40;;;;;;;13.63;9.57;;;9.70;99.90;;;;;;5039584;28;20138;-37
2022/12/21 10:19:36;;;;;;;15.07;9.15;;;9.70;99.90;;;;;;5020766;28;20033;-38
2022/12/21 10:22:20;;;;;;;14.88;9.30;;;9.80;99.90;;;;;;5038544;28;20040;-38
2022/12/21 10:24:51;;;;;;;16.85;8.10;;;9.70;99.90;;;;;;5040554;28;20040;-40
2022/12/21 10:27:21;;;;;;;18.30;9.07;;;9.70;99.90;;;;;;5038965;28;20122;-40
2022/12/21 10:29:54;;;;;;;13.88;8.98;;;9.70;99.90;;;;;;5040721;28;20439;-42
2022/12/21 10:32:20;;;;;;;12.85;8.25;;;9.70;99.90;;;;;;5038973;28;20029;-40
2022/12/21 10:34:49;;;;;;;15.40;8.70;;;9.70;99.90;;;;;;5039123;28;20033;-41
2022/12/21 10:37:18;;;;;;;14.30;8.13;;;9.70;99.90;;;;;;5039617;28;20059;-37
2022/12/21 10:39:45;;;;;;;13.00;9.10;;;9.70;99.90;;;;;;5044004;28;20037;-36
2022/12/21 10:42:10;;;;;;;15.77;8.85;;;9.70;99.90;;;;;;5042714;28;20064;-40
2022/12/21 10:44:40;;;;;;;13.43;8.50;;;9.70;99.90;;;;;;5043898;28;20397;-40
2022/12/21 10:47:17;;;;;;;15.23;10.85;;;9.70;99.90;;;;;;5042707;28;20503;-40
2022/12/21 10:49:54;;;;;;;14.98;9.32;;;9.80;99.90;;;;;;5042792;28;20056;-40
2022/12/21 10:52:43;;;;;;;14.73;9.13;;;9.70;99.90;;;;;;5043359;28;20017;-41
2022/12/21 10:55:18;;;;;;;19.23;10.38;;;9.70;99.90;;;;;;5043031;28;20036;-36
2022/12/21 10:57:50;;;;;;;17.75;9.73;;;9.70;99.90;;;;;;5043535;28;20940;-40
2022/12/21 11:00:37;;;;;;;17.83;9.63;;;9.70;99.90;;;;;;5042072;28;20849;-38
2022/12/21 11:03:05;;;;;;;13.45;8.35;;;9.70;99.90;;;;;;5042930;28;20112;-39
2022/12/21 11:05:33;;;;;;;15.07;9.57;;;9.80;99.90;;;;;;5024401;28;20104;-39
2022/12/21 11:08:18;;;;;;;15.23;9.15;;;9.80;99.90;;;;;;5037467;28;20059;-37
2022/12/21 11:10:52;;;;;;;16.08;8.82;;;9.80;99.90;;;;;;5035684;28;20048;-39
2022/12/21 11:13:20;;;;;;;15.75;9.00;;;9.80;99.90;;;;;;5042214;28;20024;-41
2022/12/21 11:16:06;;;;;;;15.02;9.75;;;9.90;99.90;;;;;;5042793;28;20094;-39
2022/12/21 11:18:43;;;;;;;14.15;9.43;;;9.90;99.90;;;;;;5042007;28;20029;-38
2022/12/21 11:21:22;;;;;;;13.98;10.10;;;10.00;99.90;;;;;;5022555;28;20105;-40
2022/12/21 11:23:57;;;;;;;19.60;12.52;;;10.00;99.90;;;;;;5038032;28;20094;-40
2022/12/21 11:26:30;;;;;;;24.30;13.73;;;10.00;99.90;;;;;;5042415;28;20145;-38
2022/12/21 11:29:02;;;;;;;19.60;14.18;;;10.10;99.90;;;;;;5042508;28;20032;-41
2022/12/21 11:31:30;;;;;;;23.48;15.77;;;10.00;99.90;;;;;;5022379;28;20390;-38
2022/12/21 11:33:58;;;;;;;25.58;16.70;;;10.00;99.90;;;;;;5037614;28;20066;-38
2022/12/21 11:36:24;;;;;;;27.33;17.83;;;10.00;99.90;;;;;;5042686;28;20664;-40
2022/12/21 11:38:49;;;;;;;21.15;16.45;;;10.00;99.90;;;;;;5041733;28;20036;-36
2022/12/21 11:41:28;;;;;;;22.85;16.90;;;10.10;99.90;;;;;;5041869;28;20067;-38
2022/12/21 11:43:55;;;;;;;24.80;17.23;;;10.10;99.90;;;;;;5042462;28;20898;-41
2022/12/21 11:46:36;;;;;;;22.63;16.02;;;10.20;99.90;;;;;;5042280;28;20082;-41
2022/12/21 11:49:20;;;;;;;22.42;15.70;;;10.30;99.90;;;;;;5042096;28;20024;-39
2022/12/21 11:52:06;;;;;;;23.90;15.57;;;10.30;99.90;;;;;;5042140;28;20029;-36
2022/12/21 11:54:44;;;;;;;19.98;14.80;;;10.30;99.90;;;;;;5041965;28;20060;-40
2022/12/21 11:57:41;;;;;;;20.13;14.23;;;10.30;99.90;;;;;;5041817;28;20102;-40
2022/12/21 12:00:25;;;;;;;23.33;15.27;;;10.40;99.90;;;;;;5040749;28;20155;-41
2022/12/21 12:03:14;;;;;;;23.13;14.65;;;10.30;99.90;;;;;;5042794;28;20021;-41
2022/12/21 12:06:17;;;;;;;20.55;13.85;;;10.30;99.90;;;;;;5040521;28;20127;-41
2022/12/21 12:09:03;;;;;;;19.23;13.23;;;10.30;99.90;;;;;;5042445;28;20039;-39
2022/12/21 12:11:54;;;;;;;22.10;12.88;;;10.40;99.90;;;;;;5031805;28;20029;-40
2022/12/21 12:14:19;;;;;;;18.30;12.23;;;10.30;99.90;;;;;;5040760;28;20754;-41
2022/12/21 12:17:00;;;;;;;17.02;11.82;;;10.30;99.90;;;;;;5042534;28;20017;-40
2022/12/21 12:20:22;;;;;;;18.58;12.10;;;10.30;99.90;;;;;;5042378;28;20029;-40
2022/12/21 12:23:18;;;;;;;21.88;11.52;;;10.30;99.90;;;;;;5018834;28;20528;-39
2022/12/21 12:25:55;;;;;;;15.80;10.15;;;10.30;99.90;;;;;;5018661;28;20043;-41
2022/12/21 12:28:42;;;;;;;16.83;11.15;;;10.30;99.90;;;;;;5018909;28;20038;-38
2022/12/21 12:31:14;;;;;;;17.95;11.27;;;10.30;99.90;;;;;;5038806;28;20543;-40
2022/12/21 12:33:51;;;;;;;18.35;12.32;;;10.30;99.90;;;;;;5041497;28;20083;-39
2022/12/21 12:36:36;;;;;;;16.13;11.23;;;10.30;99.90;;;;;;5041046;28;20032;-40
2022/12/21 12:39:27;;;;;;;19.25;12.68;;;10.20;99.90;;;;;;5041296;28;20133;-41
2022/12/21 12:42:07;;;;;;;19.35;12.00;;;10.20;99.90;;;;;;5039673;28;20028;-42
2022/12/21 12:44:59;;;;;;;16.08;12.20;;;10.20;99.90;;;;;;5061276;28;20032;-40
2022/12/21 12:47:44;;;;;;;16.27;12.10;;;10.20;99.90;;;;;;5041604;28;20033;-41
2022/12/21 12:50:26;;;;;;;13.75;10.90;;;10.20;99.90;;;;;;5040440;28;20039;-39
2022/12/21 12:53:10;;;;;;;18.90;12.88;;;10.20;99.90;;;;;;5034432;28;20571;-39
2022/12/21 12:55:43;;;;;;;20.17;12.55;;;10.20;99.90;;;;;;5040682;28;20024;-39
2022/12/21 12:58:16;;;;;;;;;;;10.20;99.90;;;;;;5041115;28;20047;-40
2022/12/21 13:00:47;;;;;;;21.25;12.88;;;10.20;99.90;;;;;;5040213;28;19947;-39
2022/12/21 13:03:44;;;;;;;19.37;13.60;;;10.20;99.90;;;;;;5029638;28;20358;-40
2022/12/21 13:06:44;;;;;;;21.52;13.40;;;10.20;99.90;;;;;;5041145;28;20029;-40
2022/12/21 13:09:23;;;;;;;18.25;14.00;;;10.10;99.90;;;;;;5036230;28;20513;-40